Terminal Aerodrome Forecast
Issued by NWS Cleveland, OH

Home | Current Version | Previous Version | Graphics & Text | Print | Product List | Glossary Off
Versions: 1 2 3 4 5 6 7 8 9 10 11 12 13 14 15 16 17 18 19 20 21 22

748
FTUS41 KCLE 240539
TAFYNG
TAF
KYNG 240539Z 2406/2506 VRB04KT P6SM OVC007
     FM241300 03004KT 6SM -RA OVC007
     FM242100 10008KT P6SM SCT007 OVC015
     FM250200 12010KT 3SM -RA BR OVC003=

USA.gov is the U.S. government's official web portal to all federal, state and local government web resources and services.